• Join FlightAware (Why Join?)
  • Login
  • US Flag 
10:43PM EDT


 

Airport Tracker/Info


-or-


 

Live Flight TrackerFlight Track Log ✈ EJA727 ✈ 03-Jul-2013 ✈ MDSD / SDQ - KTPA

Flight Track Log - Related Links

Times and Time Zones

All times are in EDT time to prevent confusion due to time zone crossing. See the EJA727 flight status page for this flight to view local times or setup timezone preferences in your user account.

Time Position Orientation Groundspeed Altitude Reporting Facility
EDT Latitude Longitude Course Direction KTS MPH feet Rate Location/Type
10:28PM 18.8358 -69.8783 321° Northwest 427 491 17,400  Level Miami Center
10:29PM 18.9178 -69.9422 324° Northwest 403 464 19,900 2,160 Climbing Miami Center
10:30PM 19.0039 -70.0125 322° Northwest 398 458 21,700 1,800 Climbing Miami Center
10:31PM 19.0663 -70.0869 327° Northwest  Level FlightAware Approximate
10:31PM 19.0986 -70.0822 325° Northwest 403 464 23,500  Level Miami Center
10:32PM 19.1565 -70.1488 328° Northwest  Level FlightAware Approximate
10:32PM 19.1933 -70.1567 323° Northwest 415 478 25,300  Level Miami Center
10:33PM 19.2422 -70.2171 321° Northwest  Level FlightAware Approximate
10:33PM 19.2944 -70.2331 325° Northwest 438 504 26,400  Level Miami Center
10:34PM 19.4000 -70.3203 322° Northwest 457 526 27,400 1,080 Climbing Miami Center
10:35PM 19.5097 -70.4075 323° Northwest 480 552 28,600 1,320 Climbing Miami Center
10:36PM 19.6172 -70.4903 324° Northwest 485 558 30,100 1,500 Climbing Miami Center
10:37PM 19.7247 -70.5714 325° Northwest 485 558 31,600 1,500 Climbing Miami Center
10:38PM 19.8300 -70.6547 323° Northwest 479 551 33,100 1,440 Climbing Miami Center
10:39PM 19.9117 -70.7169 324° Northwest 473 544 34,500 1,560 Climbing Miami Center
10:40PM 20.0147 -70.8006 323° Northwest 453 521 36,300 1,380 Climbing Miami Center
10:41PM 20.1117 -70.8781 323° Northwest 434 499 37,300 840 Climbing Miami Center
10:42PM 20.2042 -70.9536 323° Northwest 427 491 38,000 660 Climbing Miami Center
10:43PM 20.2786 -71.0497 310° West 421 484 38,700 660 Climbing Miami Center
10:44PM 20.3511 -71.1506 307° West 427 491 39,400 600 Climbing Miami Center
10:45PM 20.4236 -71.2514 308° West 427 491 40,000 240 Climbing Miami Center
10:46PM 20.4958 -71.3525 307° West 432 497 40,000  Level Miami Center
10:47PM 20.5683 -71.4558 307° West 432 497 40,000  Level Miami Center
10:48PM 20.6383 -71.5550 307° West 432 497 40,000  Level Miami Center
10:49PM 20.7128 -71.6583 308° West 432 497 40,000  Level Miami Center
10:50PM 20.7872 -71.7622 307° West 438 504 40,000  Level Miami Center
10:51PM 20.8553 -71.8639 306° West 438 504 40,000  Level Miami Center
10:52PM 20.9272 -71.9633 308° West 438 504 40,000  Level Miami Center
10:53PM 21.0014 -72.0650 308° West 438 504 40,000  Level Miami Center
10:54PM 21.0711 -72.1669 306° West 438 504 40,000  Level Miami Center
10:55PM 21.1431 -72.2692 307° West 438 504 40,000  Level Miami Center
10:56PM 21.2150 -72.3711 307° West 438 504 40,000  Level Miami Center
10:57PM 21.2867 -72.4733 307° West 438 504 40,000  Level Miami Center
10:58PM 21.3606 -72.5756 308° West 438 504 40,000  Level Miami Center
10:59PM 21.4325 -72.6803 306° West 438 504 40,000  Level Miami Center
11:00PM 21.5019 -72.7831 306° West 438 504 40,000  Level Miami Center
11:01PM 21.5756 -72.8878 307° West 443 510 40,000  Level Miami Center
11:02PM 21.6517 -72.9994 306° West 443 510 40,000  Level Miami Center
11:03PM 21.7272 -73.1044 308° West 443 510 40,000  Level Miami Center
11:04PM 21.7986 -73.2097 306° West 443 510 40,000  Level Miami Center
11:05PM 21.8678 -73.3131 306° West 443 510 40,000  Level Miami Center
11:06PM 21.9392 -73.4186 306° West 443 510 40,000  Level Miami Center
11:07PM 22.0144 -73.5194 309° West 437 503 40,000  Level Miami Center
11:08PM 22.0858 -73.6253 306° West 442 509 40,000  Level Miami Center
11:09PM 22.1547 -73.7289 306° West 436 502 40,000  Level Miami Center
11:10PM 22.2278 -73.8303 308° West 436 502 40,000  Level Miami Center
11:11PM 22.2989 -73.9364 306° West 436 502 40,000  Level Miami Center
11:12PM 22.3675 -74.0406 305° West 436 502 40,000  Level Miami Center
11:13PM 22.4364 -74.1425 306° West 431 496 40,000  Level Miami Center
11:14PM 22.5111 -74.2464 308° West 431 496 40,000  Level Miami Center
11:15PM 22.5819 -74.3508 306° West 431 496 40,000  Level Miami Center
11:16PM 22.6506 -74.4575 305° West 431 496 40,000  Level Miami Center
11:17PM 22.7231 -74.5619 307° West 431 496 40,000  Level Miami Center
11:18PM 22.7936 -74.6642 307° West 431 496 40,000  Level Miami Center
11:19PM 22.8642 -74.7692 306° West 431 496 40,000  Level Miami Center
11:20PM 22.9322 -74.8739 305° West 431 496 40,000  Level Miami Center
11:21PM 23.0025 -74.9767 307° West 425 489 40,000  Level Miami Center
11:22PM 23.0686 -75.0794 305° West 425 489 40,000  Level Miami Center
11:23PM 23.1408 -75.1825 307° West 425 489 40,000  Level Miami Center
11:24PM 23.2108 -75.2878 306° West 425 489 40,000  Level Miami Center
11:25PM 23.2789 -75.3911 306° West 425 489 40,000  Level Miami Center
11:26PM 23.3467 -75.4967 305° West 425 489 40,000  Level Miami Center
11:27PM 23.4164 -75.5956 308° West 420 483 40,000  Level Miami Center
11:28PM 23.4864 -75.7036 305° West 420 483 40,000  Level Miami Center
11:29PM 23.5519 -75.8072 305° West 420 483 40,000  Level Miami Center
11:30PM 23.6194 -75.9042 307° West 432 497 40,000  Level Miami Center
11:31PM 23.6847 -76.0058 305° West 427 491 40,000  Level Miami Center
11:32PM 23.7481 -76.1053 305° West 416 479 40,000  Level Miami Center
11:33PM 23.8133 -76.2069 305° West 416 479 40,000  Level Miami Center
11:34PM 23.8806 -76.3089 306° West 416 479 40,000  Level Miami Center
11:35PM 23.9436 -76.4064 305° West 416 479 40,000  Level Miami Center
11:36PM 24.0108 -76.5086 306° West 411 473 40,000  Level Miami Center
11:37PM 24.0736 -76.6086 305° West 411 473 40,000  Level Miami Center
11:38PM 24.1386 -76.7086 305° West 411 473 40,000  Level Miami Center
11:39PM 24.2097 -76.8156 306° West 401 461 40,000  Level Miami Center
11:40PM 24.2725 -76.9136 305° West 401 461 40,000  Level Miami Center
11:41PM 24.3372 -77.0139 305° West 401 461 40,000  Level Miami Center
11:42PM 24.4019 -77.1122 306° West 401 461 40,000  Level Miami Center
11:43PM 24.4644 -77.2150 304° West 406 467 40,000  Level Miami Center
11:44PM 24.5289 -77.3158 305° West 401 461 40,000  Level Miami Center
11:45PM 24.5933 -77.4164 305° West 401 461 40,000  Level Miami Center
11:46PM 24.6536 -77.5172 303° West 401 461 40,000  Level Miami Center
11:47PM 24.7178 -77.6206 304° West 401 461 40,000  Level Miami Center
11:48PM 24.7819 -77.7194 306° West 406 467 40,000  Level Miami Center
11:49PM 24.8483 -77.8231 305° West 406 467 40,000  Level Miami Center
11:50PM 24.9125 -77.9267 304° West 406 467 40,000  Level Miami Center
11:51PM 24.9786 -78.0281 306° West 406 467 40,000  Level Miami Center
11:52PM 25.0425 -78.1272 305° West 406 467 40,000  Level Miami Center
11:53PM 25.1064 -78.2336 304° West 406 467 40,000  Level Miami Center
11:54PM 25.1722 -78.3353 306° West 406 467 40,000  Level Miami Center
11:55PM 25.2381 -78.4417 304° West 406 467 40,000  Level Miami Center
11:56PM 25.3036 -78.5436 305° West 412 474 40,000  Level Miami Center
11:57PM 25.3672 -78.6481 304° West 412 474 40,000  Level Miami Center
11:58PM 25.4350 -78.7503 306° West 412 474 40,000  Level Miami Center
11:59PM 25.4961 -78.8572 302° West 412 474 40,000  Level Miami Center
12:00AM 25.5514 -78.9411 306° West 417 480 40,000  Level Miami Center
12:01AM 25.6231 -79.0553 305° West 417 480 40,000  Level Miami Center
12:02AM 25.6883 -79.1600 305° West 417 480 40,000  Level Miami Center
12:03AM 25.7514 -79.2675 303° West 416 479 40,000  Level Miami Center
12:04AM 25.8225 -79.3867 304° West 416 479 40,000  Level Miami Center
12:05AM 25.8814 -79.4825 304° West 425 489 40,000  Level Miami Center
12:06AM 25.9503 -79.5903 305° West 425 489 40,000  Level Miami Center
12:07AM 26.0172 -79.6981 305° West 425 489 40,000  Level Miami Center
12:08AM 26.0819 -79.8061 304° West 425 489 40,000  Level Miami Center
12:09AM 26.1486 -79.9142 305° West 425 489 40,000  Level Miami Center
12:10AM 26.2153 -80.0247 304° West 425 489 40,000  Level Miami Center
12:11AM 26.2817 -80.1378 303° West 425 489 40,000  Level Miami Center
12:12AM 26.3481 -80.2508 303° West 425 489 40,000  Level Miami Center
12:13AM 26.4183 -80.3711 303° West 425 489 40,000  Level Miami Center
12:14AM 26.4764 -80.4703 303° West 425 489 40,000  Level Miami Center
12:15AM 26.5486 -80.5933 303° West 431 496 40,000  Level Miami Center
12:16AM 26.6106 -80.6950 304° West 436 502 40,000  Level Miami Center
12:17AM 26.6825 -80.8161 304° West 428 493 40,000  Level Miami Center
12:18AM 26.7425 -80.9181 303° West 428 493 40,000 -1,500 Level Miami Center
12:19AM 26.8181 -81.0464 303° West 447 514 37,100 -2,220 Descending Miami Center
12:20AM 26.8797 -81.1533 303° West 432 497 35,600 -1,140 Descending Miami Center
12:21AM 26.9472 -81.2653 304° West 432 497 34,900 -900 Descending Miami Center
12:22AM 27.0128 -81.3772 303° West 432 497 33,900 -2,220 Descending Miami Center
12:23AM 27.0722 -81.4775 304° West 432 497 30,500 -3,360 Descending Miami Center
12:24AM 27.1375 -81.5897 303° West 432 497 27,200 -3,600 Descending Miami Center
12:25AM 27.2083 -81.7164 302° West 432 497 23,300 -3,660 Descending Miami Center
12:26AM 27.2756 -81.8289 304° West 432 497 20,100 -3,060 Descending Miami Center
12:27AM 27.3347 -81.9319 303° West 445 512 17,300 -3,120 Descending Miami Center
12:28AM 27.3994 -82.0447 303° West 440 506 13,900 -3,060 Descending Miami Center
12:29AM 27.4669 -82.1436 308° West 426 490 11,100 -1,500 Descending Miami Center
12:30AM 27.5692 -82.1953 336° Northwest 381 438 11,000 -60 Descending Miami Center
12:31AM 27.6675 -82.2467 335° Northwest 376 433 11,000 -540 Level Miami Center
12:32AM 27.7475 -82.2881 335° Northwest 364 419 10,000 -1,380 Descending Miami Center
12:33AM 27.8269 -82.3317 334° Northwest 341 392 8,300 -2,040 Descending Miami Center
12:34AM 27.9028 -82.3706 336° Northwest 314 361 5,900 -1,680 Descending Miami Center
12:35AM 27.9764 -82.4094 335° Northwest 301 346 5,000 -1,020 Descending Miami Center
12:36AM 28.0833 -82.4167 357° North 221 254 3,500 -1,140 Descending Tampa TRACON
12:37AM 28.1167 -82.4333 336° Northwest 185 213 2,500 -780 Descending Tampa TRACON
12:38AM 28.1000 -82.4833 249° West 153 176 2,000 -480 Descending Tampa TRACON
12:39AM 28.0833 -82.5167 240° Southwest 149 171 1,600 -420 Descending Tampa TRACON
12:40AM 28.0500 -82.5333 204° Southwest 131 151 1,200 -600 Descending Tampa TRACON
12:41AM 28.0167 -82.5333 180° South 134 154 500 -720 Descending Tampa TRACON
12:43AM 27.9755 -82.5332 190° South  Level Estimated
12:50AM 27.9755 -82.5332 190° South  Level Estimated
12:51AM 27.9755 -82.5332 190° South  Level Estimated